Time;durP1;ratioP1;P1;durP2;ratioP2;P2;SDS_P1;SDS_P2;PMS_P1;PMS_P2;Temp;Humidity;BMP_temperature;BMP_pressure;BME280_temperature;BME280_humidity;BME280_pressure;Samples;Min_cycle;Max_cycle;Signal;HPM_P1;HPM_P2
2022/01/16 00:01:06;;;;;;;20.70;10.60;;;2.50;56.20;;;;;;5124860;27;34194;-75
2022/01/16 00:06:14;;;;;;;21.83;10.57;;;2.60;56.10;;;;;;5108821;27;34549;-75
2022/01/16 00:08:40;;;;;;;20.23;10.45;;;2.60;56.00;;;;;;5125087;27;34062;-75
2022/01/16 00:11:07;;;;;;;22.23;10.82;;;2.60;55.90;;;;;;5089664;27;35500;-75
2022/01/16 00:13:33;;;;;;;18.85;9.45;;;2.60;56.00;;;;;;5106337;27;34223;-75
2022/01/16 00:15:59;;;;;;;19.10;10.30;;;2.60;56.00;;;;;;4921154;27;5769892;-75
2022/01/16 00:18:29;;;;;;;26.77;12.05;;;2.60;56.00;;;;;;5108081;27;34386;-75
2022/01/16 00:20:55;;;;;;;20.25;10.75;;;2.60;56.00;;;;;;5107875;27;34308;-75
2022/01/16 00:23:25;;;;;;;21.70;11.10;;;2.60;56.00;;;;;;5090935;27;36842;-75
2022/01/16 00:25:53;;;;;;;20.60;10.82;;;2.60;56.10;;;;;;5126276;27;34290;-75
2022/01/16 00:28:20;;;;;;;21.70;11.38;;;2.60;55.90;;;;;;5125674;27;34527;-75
2022/01/16 00:30:47;;;;;;;21.42;10.40;;;2.60;55.90;;;;;;5107241;27;34528;-75
2022/01/16 00:33:14;;;;;;;22.08;11.10;;;2.60;56.00;;;;;;5106944;27;36669;-75
2022/01/16 00:35:40;;;;;;;23.55;10.50;;;2.60;55.90;;;;;;5125910;27;34261;-75
2022/01/16 00:38:06;;;;;;;19.65;11.13;;;2.60;56.00;;;;;;5090397;27;34124;-75
2022/01/16 00:40:34;;;;;;;22.25;11.13;;;2.60;56.10;;;;;;5107448;27;34245;-75
2022/01/16 00:43:00;;;;;;;18.77;10.48;;;2.60;56.00;;;;;;5106992;27;36361;-75
2022/01/16 00:45:29;;;;;;;21.92;10.88;;;2.60;55.90;;;;;;5090224;27;34150;-75
2022/01/16 00:47:55;;;;;;;20.45;10.02;;;2.60;55.90;;;;;;5107838;27;34443;-75
2022/01/16 00:50:21;;;;;;;18.10;9.73;;;2.70;56.10;;;;;;5125863;27;34316;-75
2022/01/16 00:52:47;;;;;;;21.73;10.68;;;2.70;56.00;;;;;;5106876;27;34329;-75
2022/01/16 00:55:13;;;;;;;22.60;11.07;;;2.70;56.00;;;;;;5107133;27;34448;-75
2022/01/16 00:57:39;;;;;;;21.95;11.07;;;2.70;56.10;;;;;;5106875;27;34310;-75
2022/01/16 01:00:06;;;;;;;19.67;11.02;;;2.70;56.10;;;;;;5107457;27;34298;-75
2022/01/16 01:02:32;;;;;;;19.48;10.30;;;2.70;56.10;;;;;;5106840;27;36413;-75
2022/01/16 01:04:58;;;;;;;20.88;11.13;;;2.70;56.00;;;;;;5106259;27;34318;-75
2022/01/16 01:07:24;;;;;;;19.33;10.70;;;2.70;56.10;;;;;;5125416;27;34182;-75
2022/01/16 01:09:50;;;;;;;19.58;10.10;;;2.70;56.10;;;;;;5125135;27;34186;-75
2022/01/16 01:12:28;;;;;;;22.33;11.15;;;2.80;56.00;;;;;;5107122;27;35010;-75
2022/01/16 01:17:47;;;;;;;21.80;11.20;;;2.80;56.70;;;;;;5124165;27;34189;-75
2022/01/16 01:20:17;;;;;;;23.00;10.80;;;2.80;56.10;;;;;;5106613;27;34648;-75
2022/01/16 01:22:45;;;;;;;20.33;9.93;;;2.70;56.00;;;;;;5123903;27;34463;-75
2022/01/16 01:25:13;;;;;;;23.75;10.35;;;2.70;56.00;;;;;;5089612;27;34311;-75
2022/01/16 01:27:41;;;;;;;18.92;9.85;;;2.70;56.80;;;;;;5106943;27;34178;-75
2022/01/16 01:30:11;;;;;;;22.20;10.70;;;2.70;56.20;;;;;;5106297;27;34428;-75
2022/01/16 01:32:38;;;;;;;23.25;11.50;;;2.70;56.30;;;;;;5106769;27;35950;-75
2022/01/16 01:35:07;;;;;;;23.40;11.27;;;2.70;56.30;;;;;;5106632;27;34092;-75
2022/01/16 01:37:33;;;;;;;19.92;10.88;;;2.70;56.20;;;;;;5106805;27;34298;-75
2022/01/16 01:39:59;;;;;;;21.80;11.05;;;2.70;56.30;;;;;;5124839;27;34141;-75
2022/01/16 01:42:33;;;;;;;23.95;11.57;;;2.70;56.30;;;;;;5106125;27;35754;-75
2022/01/16 01:53:04;;;;;;;25.73;10.88;;;2.60;56.30;;;;;;5108222;27;34104;-75
2022/01/16 01:55:30;;;;;;;24.45;10.60;;;2.60;56.30;;;;;;5106465;27;34411;-75
2022/01/16 01:57:56;;;;;;;23.73;11.32;;;2.70;56.30;;;;;;5123379;27;34135;-75
2022/01/16 02:00:23;;;;;;;26.05;11.32;;;2.70;56.30;;;;;;5124859;27;34407;-75
2022/01/16 02:05:34;;;;;;;25.15;10.73;;;2.70;56.30;;;;;;5124361;27;34185;-75
2022/01/16 02:08:02;;;;;;;21.02;10.68;;;2.70;56.20;;;;;;5105778;27;34369;-75
2022/01/16 02:10:28;;;;;;;25.13;11.90;;;2.80;56.20;;;;;;5105916;27;34334;-75
2022/01/16 02:13:00;;;;;;;24.38;10.70;;;2.80;56.20;;;;;;5105883;27;36117;-75
2022/01/16 02:27:55;;;;;;;26.25;11.45;;;2.80;56.80;;;;;;5106668;27;34337;-75
2022/01/16 02:34:37;;;;;;;24.63;10.88;;;2.70;56.10;;;;;;5123195;27;34178;-75
2022/01/16 02:37:08;;;;;;;25.92;11.02;;;2.70;56.30;;;;;;5105028;27;34281;-75
2022/01/16 02:39:37;;;;;;;21.15;10.32;;;2.70;56.30;;;;;;5105597;27;35003;-75
2022/01/16 02:42:06;;;;;;;24.33;11.48;;;2.70;56.30;;;;;;5105407;27;34349;-75
2022/01/16 02:47:20;;;;;;;24.23;10.68;;;2.70;56.20;;;;;;5108495;27;34328;-75
2022/01/16 02:49:48;;;;;;;27.77;12.35;;;2.80;56.30;;;;;;5088500;27;34332;-75
2022/01/16 02:52:17;;;;;;;22.23;11.02;;;2.70;56.20;;;;;;5088214;27;34154;-75
2022/01/16 02:54:46;;;;;;;29.42;12.00;;;2.80;56.20;;;;;;5088020;27;35875;-75
2022/01/16 02:57:17;;;;;;;29.05;11.23;;;2.80;56.80;;;;;;5105050;27;34114;-75
2022/01/16 02:59:48;;;;;;;26.55;11.30;;;2.80;56.10;;;;;;5087694;27;34081;-75
2022/01/16 03:02:15;;;;;;;32.70;12.23;;;2.70;56.10;;;;;;5088648;27;33991;-75
2022/01/16 03:04:42;;;;;;;25.90;11.38;;;2.70;56.20;;;;;;5104479;27;35763;-75
2022/01/16 03:07:08;;;;;;;27.00;12.18;;;2.80;56.10;;;;;;5105107;27;34282;-75
2022/01/16 03:09:58;;;;;;;25.85;11.50;;;2.80;56.10;;;;;;5105274;27;34121;-75
2022/01/16 03:12:21;;;;;;;26.30;12.52;;;2.80;56.10;;;;;;5108565;27;34487;-75
2022/01/16 03:14:47;;;;;;;22.60;11.60;;;2.80;56.20;;;;;;5100974;27;35905;-75
2022/01/16 03:17:21;;;;;;;21.55;10.68;;;2.80;56.10;;;;;;5084785;28;34433;-75
2022/01/16 03:22:29;;;;;;;22.90;11.38;;;2.80;56.10;;;;;;5116561;27;34264;-75
2022/01/16 03:24:55;;;;;;;25.25;12.13;;;2.80;56.00;;;;;;5101084;28;35958;-75
2022/01/16 03:27:21;;;;;;;24.77;12.00;;;2.80;56.00;;;;;;5101251;28;34147;-75
2022/01/16 03:29:51;;;;;;;26.50;11.35;;;2.80;56.00;;;;;;5101350;28;34210;-75
2022/01/16 03:32:20;;;;;;;20.35;10.45;;;2.80;55.90;;;;;;5101514;28;34527;-75
2022/01/16 03:34:46;;;;;;;21.10;10.75;;;2.80;56.00;;;;;;5102208;28;34566;-75
2022/01/16 03:37:12;;;;;;;24.50;10.88;;;2.80;56.00;;;;;;5101139;28;34123;-75
2022/01/16 03:39:39;;;;;;;27.00;11.57;;;2.80;55.90;;;;;;5102369;27;34397;-75
2022/01/16 03:42:06;;;;;;;23.23;10.75;;;2.80;56.00;;;;;;5106395;27;34368;-75
2022/01/16 03:44:32;;;;;;;22.05;11.93;;;2.80;55.90;;;;;;5105291;28;34605;-75
2022/01/16 03:46:58;;;;;;;22.65;10.63;;;2.80;55.90;;;;;;5104553;28;34317;-75
2022/01/16 03:49:27;;;;;;;24.23;11.50;;;2.80;56.00;;;;;;5104873;28;34307;-75
2022/01/16 03:51:54;;;;;;;26.15;10.77;;;2.80;55.90;;;;;;5104555;28;34246;-75
2022/01/16 03:54:24;;;;;;;22.83;10.98;;;2.80;56.00;;;;;;5104507;27;35524;-75
2022/01/16 03:56:50;;;;;;;23.90;10.77;;;2.70;56.10;;;;;;5104236;28;34558;-75
2022/01/16 03:59:17;;;;;;;22.20;10.95;;;2.70;56.10;;;;;;5106062;28;34196;-75
2022/01/16 04:01:44;;;;;;;23.88;11.07;;;2.70;56.00;;;;;;5104525;28;34401;-75
2022/01/16 04:04:10;;;;;;;22.45;10.98;;;2.70;56.00;;;;;;5104582;28;35604;-75
2022/01/16 04:06:36;;;;;;;26.15;11.65;;;2.80;56.10;;;;;;5104620;28;34139;-75
2022/01/16 04:09:03;;;;;;;21.60;10.38;;;2.80;56.10;;;;;;5104363;28;34238;-75
2022/01/16 04:11:30;;;;;;;22.25;10.40;;;2.80;56.70;;;;;;5122373;27;34190;-75
2022/01/16 04:16:39;;;;;;;25.55;11.00;;;2.80;55.80;;;;;;5109881;27;34266;-75
2022/01/16 04:19:05;;;;;;;24.00;10.88;;;2.80;56.00;;;;;;5126662;27;34265;-75
2022/01/16 04:21:31;;;;;;;22.80;11.68;;;2.80;55.90;;;;;;5108101;27;34460;-75
2022/01/16 04:23:57;;;;;;;23.25;11.15;;;2.80;55.80;;;;;;5106725;27;35657;-75
2022/01/16 04:26:25;;;;;;;21.63;10.23;;;2.80;55.70;;;;;;5091156;27;34109;-75
2022/01/16 04:28:52;;;;;;;28.70;11.93;;;2.80;55.70;;;;;;5090766;27;34287;-75
2022/01/16 04:31:18;;;;;;;23.27;11.20;;;2.80;55.80;;;;;;5090544;27;34148;-75
2022/01/16 04:33:45;;;;;;;21.52;10.82;;;2.80;55.80;;;;;;5107299;27;36404;-75
2022/01/16 04:36:12;;;;;;;22.88;10.50;;;2.80;55.70;;;;;;5126254;27;34398;-75
2022/01/16 04:38:44;;;;;;;30.33;11.73;;;2.80;55.70;;;;;;5125309;27;34313;-75
2022/01/16 04:43:53;;;;;;;25.35;10.93;;;2.80;55.60;;;;;;5124599;27;34832;-75
2022/01/16 04:46:22;;;;;;;23.08;10.48;;;2.80;55.70;;;;;;5106849;27;34262;-75
2022/01/16 04:48:49;;;;;;;24.88;10.40;;;2.80;55.70;;;;;;5106573;27;34176;-75
2022/01/16 04:51:15;;;;;;;23.08;10.43;;;2.80;55.70;;;;;;5106175;27;34070;-75
2022/01/16 04:53:42;;;;;;;23.83;9.15;;;2.80;55.70;;;;;;5090075;27;35977;-75
2022/01/16 04:56:09;;;;;;;21.52;10.93;;;2.80;55.70;;;;;;5107171;27;34454;-75
2022/01/16 04:58:36;;;;;;;25.35;11.40;;;2.80;55.70;;;;;;5125768;27;34405;-75
2022/01/16 05:01:03;;;;;;;21.17;11.63;;;2.80;55.70;;;;;;5090121;27;34500;-75
2022/01/16 05:03:30;;;;;;;20.58;10.10;;;2.80;55.80;;;;;;5124814;27;34286;-75
2022/01/16 05:05:57;;;;;;;22.52;10.88;;;2.80;55.70;;;;;;5125495;27;34231;-75
2022/01/16 05:08:24;;;;;;;28.50;11.32;;;2.80;55.70;;;;;;5106946;27;34154;-75
2022/01/16 05:10:54;;;;;;;21.17;10.60;;;2.80;55.70;;;;;;5125795;27;34398;-75
2022/01/16 05:13:30;;;;;;;22.33;11.15;;;2.80;55.70;;;;;;5090514;27;35754;-75
2022/01/16 05:18:39;;;;;;;21.48;10.35;;;2.80;55.70;;;;;;5103291;28;34167;-75
2022/01/16 05:21:06;;;;;;;26.42;10.43;;;2.80;55.80;;;;;;5103760;28;34504;-75
2022/01/16 05:23:32;;;;;;;25.45;11.40;;;2.80;55.80;;;;;;5086437;28;35823;-75
2022/01/16 05:26:00;;;;;;;24.40;11.63;;;2.80;55.80;;;;;;5103169;28;34230;-75
2022/01/16 05:28:26;;;;;;;23.58;10.88;;;2.80;55.70;;;;;;5103290;28;34249;-75
2022/01/16 05:30:53;;;;;;;21.40;10.85;;;2.80;55.70;;;;;;5103745;28;34132;-75
2022/01/16 05:33:19;;;;;;;29.05;11.93;;;2.80;55.80;;;;;;5104457;28;34242;-75
2022/01/16 05:35:45;;;;;;;24.27;11.57;;;2.80;55.70;;;;;;5103283;28;34445;-75
2022/01/16 05:38:12;;;;;;;25.63;11.77;;;2.80;55.70;;;;;;5103061;28;34182;-75
2022/01/16 05:40:39;;;;;;;22.13;11.57;;;2.80;55.80;;;;;;5104488;28;34300;-75
2022/01/16 05:43:05;;;;;;;22.70;11.00;;;2.80;55.80;;;;;;5102490;28;35805;-75
2022/01/16 05:45:32;;;;;;;24.08;11.52;;;2.80;55.70;;;;;;5104154;28;34099;-75
2022/01/16 05:47:58;;;;;;;26.15;11.52;;;2.90;55.80;;;;;;5085928;28;34554;-75
2022/01/16 05:50:26;;;;;;;22.90;11.20;;;2.90;55.70;;;;;;5102999;28;34207;-75
2022/01/16 05:52:52;;;;;;;22.17;11.15;;;2.90;55.70;;;;;;5103735;28;35130;-75
2022/01/16 05:55:19;;;;;;;24.45;11.10;;;2.90;55.70;;;;;;5103044;28;34121;-75
2022/01/16 05:57:46;;;;;;;22.08;11.48;;;2.90;55.70;;;;;;5102117;28;34229;-75
2022/01/16 06:00:14;;;;;;;27.75;11.32;;;2.90;55.70;;;;;;5103375;28;34097;-75
2022/01/16 06:02:41;;;;;;;23.40;11.40;;;2.90;55.70;;;;;;5085652;28;35658;-75
2022/01/16 06:05:08;;;;;;;24.17;11.80;;;2.90;56.40;;;;;;5103806;28;34937;-75
2022/01/16 06:07:34;;;;;;;27.00;11.75;;;2.80;55.80;;;;;;5085580;28;34390;-75
2022/01/16 06:10:00;;;;;;;24.77;10.77;;;2.80;55.80;;;;;;5102496;28;34274;-75
2022/01/16 06:12:26;;;;;;;25.42;11.90;;;2.80;55.80;;;;;;5102315;28;34182;-75
2022/01/16 06:14:52;;;;;;;24.20;11.07;;;2.80;55.90;;;;;;5101798;28;34176;-75
2022/01/16 06:17:18;;;;;;;27.48;11.60;;;2.80;55.90;;;;;;5085238;28;34317;-75
2022/01/16 06:19:44;;;;;;;24.55;10.98;;;2.80;55.90;;;;;;5102010;28;34570;-75
2022/01/16 06:22:10;;;;;;;24.77;10.98;;;2.80;55.90;;;;;;5102008;28;35870;-75
2022/01/16 06:24:36;;;;;;;21.23;10.38;;;2.80;55.80;;;;;;5085615;28;34243;-75
2022/01/16 06:27:03;;;;;;;25.77;11.18;;;2.80;55.80;;;;;;5085079;28;34281;-75
2022/01/16 06:29:29;;;;;;;23.88;11.65;;;2.80;56.00;;;;;;5101714;28;34194;-75
2022/01/16 06:31:56;;;;;;;18.48;9.75;;;2.80;55.90;;;;;;5102183;28;34301;-75
2022/01/16 06:34:22;;;;;;;29.88;12.30;;;2.80;55.90;;;;;;5085321;28;34117;-75
2022/01/16 06:36:48;;;;;;;25.67;11.98;;;2.80;56.00;;;;;;5102241;27;34172;-75
2022/01/16 06:39:14;;;;;;;24.83;11.23;;;2.80;55.90;;;;;;5102731;28;34122;-75
2022/01/16 06:41:40;;;;;;;25.88;10.80;;;2.90;56.00;;;;;;5084376;28;36941;-75
2022/01/16 06:44:07;;;;;;;25.40;11.35;;;2.90;56.00;;;;;;5102169;28;34299;-75
2022/01/16 06:46:33;;;;;;;33.35;12.38;;;2.90;56.00;;;;;;5102354;28;34262;-75
2022/01/16 06:48:59;;;;;;;22.17;11.05;;;2.90;56.00;;;;;;5102110;28;34202;-75
2022/01/16 06:51:25;;;;;;;28.27;11.18;;;2.90;56.00;;;;;;5102846;27;34426;-75
2022/01/16 06:53:55;;;;;;;23.17;11.20;;;2.90;56.00;;;;;;5103099;28;34638;-75
2022/01/16 06:56:22;;;;;;;27.02;11.75;;;2.90;56.00;;;;;;5102097;28;34237;-75
2022/01/16 06:58:48;;;;;;;28.33;11.40;;;2.90;56.00;;;;;;5085127;28;34111;-75
2022/01/16 07:01:14;;;;;;;24.40;11.32;;;2.90;56.00;;;;;;5102660;28;34232;-75
2022/01/16 07:03:41;;;;;;;26.92;11.18;;;2.90;55.90;;;;;;5101922;28;34246;-75
2022/01/16 07:06:07;;;;;;;26.20;12.30;;;2.90;55.90;;;;;;5102835;28;34332;-75
2022/01/16 07:08:33;;;;;;;24.42;11.02;;;2.90;55.90;;;;;;5101444;28;34628;-75
2022/01/16 07:11:00;;;;;;;25.58;11.13;;;2.90;55.90;;;;;;5102176;28;34329;-75
2022/01/16 07:13:28;;;;;;;28.30;12.10;;;2.90;56.00;;;;;;5101890;27;34204;-75
2022/01/16 07:15:54;;;;;;;25.23;12.40;;;2.90;56.00;;;;;;5121120;27;34223;-75
2022/01/16 07:18:21;;;;;;;26.52;11.85;;;2.90;56.00;;;;;;5108936;27;34440;-75
2022/01/16 07:20:47;;;;;;;26.88;12.50;;;2.90;56.00;;;;;;5108293;27;36257;-75
2022/01/16 07:23:14;;;;;;;25.08;11.20;;;2.90;56.00;;;;;;5091401;27;34385;-75
2022/01/16 07:25:41;;;;;;;25.15;11.93;;;3.00;56.00;;;;;;5108794;27;34205;-75
2022/01/16 07:28:08;;;;;;;20.20;11.60;;;3.00;56.00;;;;;;5108428;27;34152;-75
2022/01/16 07:30:36;;;;;;;24.75;10.52;;;3.00;55.90;;;;;;5108154;27;35748;-76
2022/01/16 07:33:03;;;;;;;25.15;12.00;;;3.00;55.90;;;;;;5108574;27;34192;-75
2022/01/16 07:35:30;;;;;;;25.75;11.35;;;3.00;56.00;;;;;;5108961;27;34216;-75
2022/01/16 07:37:56;;;;;;;28.08;10.90;;;3.00;56.00;;;;;;5126545;27;34315;-75
2022/01/16 07:40:22;;;;;;;26.02;11.63;;;2.90;56.10;;;;;;5108332;27;36300;-75
2022/01/16 07:42:48;;;;;;;24.45;11.18;;;2.90;56.10;;;;;;5126486;27;34187;-75
2022/01/16 07:45:14;;;;;;;24.98;10.13;;;2.90;56.20;;;;;;5108498;27;34386;-75
2022/01/16 07:47:41;;;;;;;31.63;11.73;;;2.90;56.10;;;;;;5109214;27;34594;-75
2022/01/16 07:50:07;;;;;;;25.48;11.48;;;2.90;56.10;;;;;;5127279;27;34200;-75
2022/01/16 07:52:34;;;;;;;30.35;11.40;;;2.90;56.20;;;;;;5108758;27;34383;-75
2022/01/16 07:55:01;;;;;;;27.40;10.80;;;2.80;56.20;;;;;;5108882;27;34028;-75
2022/01/16 07:57:27;;;;;;;21.92;10.40;;;2.80;56.20;;;;;;5126626;27;34221;-75
2022/01/16 07:59:53;;;;;;;28.95;10.98;;;2.80;56.10;;;;;;5090495;27;36403;-75
2022/01/16 08:02:19;;;;;;;27.65;10.75;;;2.80;56.20;;;;;;5107767;27;34311;-75
2022/01/16 08:04:45;;;;;;;26.10;11.48;;;2.80;56.10;;;;;;5107180;27;34215;-75
2022/01/16 08:07:11;;;;;;;30.52;12.00;;;2.80;56.10;;;;;;5107997;27;34501;-75
2022/01/16 08:09:38;;;;;;;27.02;11.63;;;2.80;56.20;;;;;;5126010;27;34277;-75
2022/01/16 08:12:06;;;;;;;28.13;11.90;;;2.70;56.10;;;;;;5107763;27;34393;-75
2022/01/16 08:14:32;;;;;;;27.15;11.50;;;2.70;56.30;;;;;;5107891;27;34120;-75
2022/01/16 08:17:00;;;;;;;24.10;10.95;;;2.70;56.30;;;;;;5125881;27;34096;-75
2022/01/16 08:19:27;;;;;;;24.48;11.20;;;2.70;56.30;;;;;;5107694;27;35591;-75
2022/01/16 08:21:54;;;;;;;22.70;10.70;;;2.70;56.30;;;;;;5125703;27;34044;-75
2022/01/16 08:24:21;;;;;;;29.52;11.20;;;2.70;56.30;;;;;;5108075;27;34240;-75
2022/01/16 08:26:47;;;;;;;22.92;11.20;;;2.60;56.20;;;;;;5126075;27;34273;-75
2022/01/16 08:29:13;;;;;;;23.75;11.02;;;2.60;56.10;;;;;;5107481;27;35958;-75
2022/01/16 08:31:39;;;;;;;26.67;11.93;;;2.70;56.20;;;;;;5090502;27;34301;-75
2022/01/16 08:34:05;;;;;;;22.33;11.25;;;2.70;56.10;;;;;;5107295;27;34324;-75
2022/01/16 08:36:32;;;;;;;26.02;10.93;;;2.70;56.20;;;;;;5090761;27;34406;-75
2022/01/16 08:38:58;;;;;;;24.88;11.23;;;2.70;56.10;;;;;;5107263;27;34390;-75
2022/01/16 08:41:24;;;;;;;23.75;10.88;;;2.70;56.20;;;;;;5106859;27;34186;-75
2022/01/16 08:43:51;;;;;;;25.92;11.27;;;2.70;56.10;;;;;;5126052;27;34099;-75
2022/01/16 08:46:18;;;;;;;26.45;11.15;;;2.80;56.00;;;;;;5107999;27;34199;-75
2022/01/16 08:48:44;;;;;;;30.27;11.63;;;2.80;56.00;;;;;;5106489;27;36549;-75
2022/01/16 08:51:11;;;;;;;23.60;11.38;;;2.80;56.50;;;;;;5107468;27;34215;-75
2022/01/16 08:53:37;;;;;;;24.20;10.18;;;2.80;55.80;;;;;;5125764;27;34314;-75
2022/01/16 08:56:05;;;;;;;26.25;11.00;;;2.80;55.80;;;;;;5107195;27;34411;-75
2022/01/16 08:58:31;;;;;;;22.85;9.52;;;2.80;55.80;;;;;;5107268;27;35970;-75
2022/01/16 09:00:57;;;;;;;26.17;10.48;;;2.80;55.80;;;;;;5106595;27;34203;-75
2022/01/16 09:03:24;;;;;;;25.88;11.35;;;2.80;55.80;;;;;;5106913;27;34380;-75
2022/01/16 09:05:51;;;;;;;19.25;10.25;;;2.90;55.80;;;;;;5106441;27;34261;-75
2022/01/16 09:08:18;;;;;;;28.40;11.65;;;2.90;55.90;;;;;;5106676;27;35601;-75
2022/01/16 09:10:45;;;;;;;24.77;9.85;;;2.90;55.90;;;;;;5089944;27;34022;-76
2022/01/16 09:13:15;;;;;;;23.42;10.80;;;2.90;55.80;;;;;;5106944;27;34186;-75
2022/01/16 09:15:43;;;;;;;24.92;10.43;;;2.90;55.90;;;;;;5107205;27;34180;-75
2022/01/16 09:18:09;;;;;;;27.08;9.48;;;2.90;56.00;;;;;;5106662;27;36603;-75
2022/01/16 09:20:36;;;;;;;21.25;10.15;;;2.90;55.90;;;;;;5107071;27;34057;-75
2022/01/16 09:23:02;;;;;;;24.65;10.82;;;2.90;55.90;;;;;;5106238;27;34168;-75
2022/01/16 09:25:28;;;;;;;22.30;8.95;;;3.00;55.90;;;;;;5089785;27;34337;-75
2022/01/16 09:27:54;;;;;;;20.10;9.60;;;2.90;55.80;;;;;;5106593;27;35932;-75
2022/01/16 09:30:22;;;;;;;21.45;10.05;;;3.00;55.90;;;;;;5106549;27;34196;-75
2022/01/16 09:32:48;;;;;;;17.23;9.52;;;3.00;55.90;;;;;;5089268;27;34193;-75
2022/01/16 09:35:15;;;;;;;22.70;10.57;;;3.00;55.80;;;;;;5106318;27;34124;-75
2022/01/16 09:37:42;;;;;;;23.92;10.75;;;3.10;55.80;;;;;;5088728;27;36718;-75
2022/01/16 09:40:10;;;;;;;24.33;10.70;;;3.10;55.70;;;;;;5106906;27;34254;-75
2022/01/16 09:42:37;;;;;;;20.48;9.35;;;3.10;55.60;;;;;;5089933;27;34310;-75
2022/01/16 09:45:05;;;;;;;17.45;8.82;;;3.10;55.70;;;;;;5106176;27;34191;-75
2022/01/16 09:47:31;;;;;;;25.38;9.93;;;3.10;55.70;;;;;;5124295;27;34384;-76
2022/01/16 09:49:58;;;;;;;19.98;9.10;;;3.10;55.80;;;;;;5124510;27;34271;-75
2022/01/16 09:52:24;;;;;;;20.48;9.00;;;3.10;55.80;;;;;;5106206;27;34212;-75
2022/01/16 09:54:50;;;;;;;17.55;8.65;;;3.10;55.70;;;;;;5105873;27;34538;-75
2022/01/16 09:57:16;;;;;;;22.05;8.73;;;3.10;55.70;;;;;;5106588;27;36041;-75
2022/01/16 09:59:45;;;;;;;20.13;9.07;;;3.10;55.80;;;;;;5105809;27;34155;-75
2022/01/16 10:02:11;;;;;;;20.50;8.88;;;3.10;55.80;;;;;;5124368;27;34085;-75
2022/01/16 10:04:40;;;;;;;20.60;9.63;;;3.00;55.80;;;;;;5088961;27;34235;-75
2022/01/16 10:07:10;;;;;;;20.10;9.23;;;3.10;55.90;;;;;;5106042;27;35621;-75
2022/01/16 10:09:38;;;;;;;21.48;8.95;;;3.10;55.80;;;;;;5124366;27;34167;-76
2022/01/16 10:12:14;;;;;;;21.52;9.57;;;3.10;55.90;;;;;;5089387;27;34062;-75
2022/01/16 10:14:47;;;;;;;19.90;9.00;;;3.10;55.80;;;;;;5105991;27;34260;-75
2022/01/16 10:17:18;;;;;;;23.48;10.63;;;3.10;55.70;;;;;;5124278;27;35427;-75
2022/01/16 10:19:44;;;;;;;19.38;9.27;;;3.20;55.70;;;;;;5088533;27;34137;-75
2022/01/16 10:22:13;;;;;;;20.88;8.55;;;3.20;55.70;;;;;;5105646;27;34233;-75
2022/01/16 10:24:40;;;;;;;20.13;9.38;;;3.20;55.60;;;;;;5089082;27;34178;-75
2022/01/16 10:27:14;;;;;;;19.08;8.85;;;3.20;55.70;;;;;;5105019;27;35765;-75
2022/01/16 10:29:46;;;;;;;23.42;8.70;;;3.30;55.50;;;;;;5105940;27;34217;-75
2022/01/16 10:32:20;;;;;;;20.02;9.82;;;3.30;55.40;;;;;;5089086;27;34240;-75
2022/01/16 10:34:50;;;;;;;20.20;7.97;;;3.30;55.40;;;;;;5105962;27;34129;-75
2022/01/16 10:37:31;;;;;;;15.43;7.80;;;3.30;55.40;;;;;;5088953;27;36659;-76
2022/01/16 10:40:03;;;;;;;19.40;8.50;;;3.40;55.00;;;;;;5105189;27;34322;-75
2022/01/16 10:42:31;;;;;;;20.92;9.60;;;3.30;55.20;;;;;;5088752;27;34165;-75
2022/01/16 10:45:03;;;;;;;16.17;8.38;;;3.30;55.40;;;;;;5088958;27;34141;-75
2022/01/16 10:47:39;;;;;;;18.90;8.95;;;3.40;55.20;;;;;;5123603;27;34420;-75
2022/01/16 10:50:13;;;;;;;19.05;8.98;;;3.40;55.20;;;;;;5093649;27;34460;-75
2022/01/16 10:52:51;;;;;;;16.60;8.63;;;3.40;55.00;;;;;;5109253;27;34403;-76
2022/01/16 10:55:19;;;;;;;18.48;8.23;;;3.40;55.00;;;;;;5128027;27;34342;-76
2022/01/16 10:57:45;;;;;;;16.05;7.95;;;3.50;55.10;;;;;;5107942;27;36772;-75
2022/01/16 11:00:17;;;;;;;17.30;8.55;;;3.50;54.90;;;;;;5127083;27;34237;-75
2022/01/16 11:02:46;;;;;;;17.15;8.18;;;3.60;54.90;;;;;;5127688;27;34075;-75
2022/01/16 11:05:15;;;;;;;16.30;7.63;;;3.60;54.70;;;;;;5092230;27;34255;-76
2022/01/16 11:07:42;;;;;;;17.88;8.63;;;3.60;54.70;;;;;;5108795;27;35668;-75
2022/01/16 11:10:26;;;;;;;16.08;8.48;;;3.60;54.80;;;;;;5108843;27;34243;-75
2022/01/16 11:12:54;;;;;;;18.73;7.82;;;3.60;54.70;;;;;;5108486;27;34134;-75
2022/01/16 11:15:21;;;;;;;16.70;8.52;;;3.60;54.70;;;;;;5108618;27;34112;-75
2022/01/16 11:17:47;;;;;;;17.88;8.27;;;3.60;54.80;;;;;;5108408;27;36709;-75
2022/01/16 11:20:15;;;;;;;16.35;8.25;;;3.70;54.80;;;;;;5127276;27;34129;-75
2022/01/16 11:25:34;;;;;;;17.38;8.25;;;3.70;54.70;;;;;;5126645;27;34342;-75
2022/01/16 11:28:04;;;;;;;17.10;7.78;;;3.70;54.80;;;;;;5126168;27;34260;-74
2022/01/16 11:30:31;;;;;;;15.88;8.40;;;3.70;54.50;;;;;;5091630;27;34271;-75
2022/01/16 11:32:58;;;;;;;20.20;8.20;;;3.80;54.80;;;;;;5108398;27;34399;-75
2022/01/16 11:35:27;;;;;;;17.38;8.18;;;3.80;54.90;;;;;;5126719;27;34331;-75
2022/01/16 11:37:55;;;;;;;17.27;8.25;;;3.90;54.70;;;;;;5091613;27;36128;-75
2022/01/16 11:40:37;;;;;;;18.55;8.35;;;3.90;54.90;;;;;;5126549;27;34342;-75
2022/01/16 11:43:16;;;;;;;16.10;8.32;;;3.90;54.50;;;;;;5108326;27;34182;-76
2022/01/16 11:46:13;;;;;;;17.27;7.57;;;3.90;54.40;;;;;;5108454;27;34144;-76
2022/01/16 11:48:42;;;;;;;16.08;7.78;;;3.90;54.50;;;;;;5107587;27;35782;-75
2022/01/16 11:51:49;;;;;;;17.58;8.00;;;3.80;54.40;;;;;;5091111;27;34182;-75
2022/01/16 11:54:34;;;;;;;17.67;8.02;;;3.80;54.30;;;;;;5094689;27;34221;-76
2022/01/16 11:57:21;;;;;;;18.17;8.85;;;3.90;54.80;;;;;;5125867;27;34131;-75
2022/01/16 11:59:50;;;;;;;16.98;8.15;;;3.90;55.00;;;;;;5092527;27;36291;-75
2022/01/16 12:02:19;;;;;;;15.38;6.75;;;3.90;55.10;;;;;;5126257;27;34189;-75
2022/01/16 12:04:55;;;;;;;14.70;8.23;;;4.00;54.40;;;;;;5108301;27;34206;-75
2022/01/16 12:07:45;;;;;;;17.88;9.10;;;3.90;54.90;;;;;;5108392;27;34166;-75
2022/01/16 12:10:13;;;;;;;14.85;7.80;;;3.90;54.50;;;;;;5112171;27;34463;-75
2022/01/16 12:12:39;;;;;;;17.95;8.98;;;4.00;55.00;;;;;;5126489;27;34109;-75
2022/01/16 12:15:08;;;;;;;19.98;9.02;;;4.00;55.00;;;;;;5107728;27;34373;-75
2022/01/16 12:17:44;;;;;;;16.40;7.75;;;4.00;55.00;;;;;;5091572;27;34145;-75
2022/01/16 12:20:23;;;;;;;16.35;8.13;;;4.00;55.00;;;;;;5125935;27;34364;-75
2022/01/16 12:23:08;;;;;;;17.75;8.20;;;4.00;54.80;;;;;;5091452;27;34259;-75
2022/01/16 12:25:37;;;;;;;18.23;8.32;;;4.00;54.80;;;;;;5126200;27;34130;-75
2022/01/16 12:28:14;;;;;;;18.38;9.25;;;4.10;55.00;;;;;;5125687;27;34386;-75
2022/01/16 12:30:52;;;;;;;15.55;8.02;;;4.10;55.00;;;;;;5107433;27;36530;-75
2022/01/16 12:33:42;;;;;;;18.35;8.02;;;4.10;54.90;;;;;;5126446;27;34105;-75
2022/01/16 12:36:17;;;;;;;17.88;7.70;;;4.10;54.70;;;;;;5125238;27;34252;-75
2022/01/16 12:38:51;;;;;;;21.98;9.07;;;4.10;54.90;;;;;;5108021;27;34449;-75
2022/01/16 12:41:24;;;;;;;20.25;8.43;;;4.10;54.90;;;;;;5090167;27;36633;-75
2022/01/16 12:43:55;;;;;;;20.77;9.27;;;4.10;55.60;;;;;;5107043;27;34322;-75
2022/01/16 12:46:27;;;;;;;19.25;8.57;;;4.10;55.00;;;;;;5107685;27;34139;-75
2022/01/16 12:48:54;;;;;;;15.93;8.60;;;4.10;55.00;;;;;;5107102;27;34159;-75
2022/01/16 12:51:24;;;;;;;19.05;8.32;;;4.10;55.00;;;;;;5106016;27;36927;-76
2022/01/16 12:53:53;;;;;;;17.92;8.65;;;4.00;54.90;;;;;;5107138;27;34216;-75
2022/01/16 12:56:39;;;;;;;17.55;9.07;;;4.00;54.90;;;;;;5107094;27;34292;-75
2022/01/16 12:59:11;;;;;;;17.40;9.18;;;4.00;55.00;;;;;;5107369;27;34555;-75
2022/01/16 13:01:43;;;;;;;16.58;8.60;;;4.00;55.10;;;;;;5107569;27;34466;-75
2022/01/16 13:04:20;;;;;;;17.70;8.55;;;4.00;55.20;;;;;;5107458;27;34214;-75
2022/01/16 13:06:46;;;;;;;19.55;9.23;;;4.00;55.00;;;;;;5091296;27;34404;-76
2022/01/16 13:09:12;;;;;;;17.73;9.23;;;4.00;55.10;;;;;;5091241;27;34401;-75
2022/01/16 13:11:42;;;;;;;16.23;7.93;;;4.00;55.10;;;;;;5107243;27;36092;-76
2022/01/16 13:14:16;;;;;;;18.13;8.63;;;3.90;54.80;;;;;;5126211;27;34119;-76
2022/01/16 13:16:46;;;;;;;15.48;7.95;;;3.90;55.30;;;;;;5084536;28;34196;-75
2022/01/16 13:19:18;;;;;;;17.80;8.27;;;3.90;55.20;;;;;;5083428;28;34084;-75
2022/01/16 13:22:04;;;;;;;19.75;9.45;;;3.90;55.20;;;;;;5082357;28;35640;-75
2022/01/16 13:24:35;;;;;;;18.33;8.35;;;3.90;55.40;;;;;;5082812;28;34333;-75
2022/01/16 13:27:04;;;;;;;15.32;8.38;;;3.80;55.20;;;;;;5065718;28;34135;-75
2022/01/16 13:29:32;;;;;;;22.25;7.97;;;3.80;55.30;;;;;;5082893;28;34433;-75
2022/01/16 13:31:58;;;;;;;16.95;7.82;;;3.80;55.30;;;;;;5082349;28;35506;-75
2022/01/16 13:34:38;;;;;;;18.33;8.48;;;3.80;55.20;;;;;;5082699;28;34140;-75
2022/01/16 13:37:06;;;;;;;19.20;8.40;;;3.90;55.30;;;;;;5083001;28;34236;-75